Time;durP1;ratioP1;P1;durP2;ratioP2;P2;SDS_P1;SDS_P2;PMS_P1;PMS_P2;Temp;Humidity;BMP_temperature;BMP_pressure;BME280_temperature;BME280_humidity;BME280_pressure;Samples;Min_cycle;Max_cycle;Signal;HPM_P1;HPM_P2
2022/09/04 00:01:36;;;;;;;898.40;849.37;;;14.50;99.90;;;;;;5078048;28;20522;-82
2022/09/04 00:04:19;;;;;;;893.80;844.67;;;14.40;99.90;;;;;;5068727;28;20451;-82
2022/09/04 00:06:55;;;;;;;884.33;836.53;;;14.40;99.90;;;;;;5080722;28;20541;-82
2022/09/04 00:09:31;;;;;;;945.13;890.63;;;14.30;99.90;;;;;;5088115;28;20460;-82
2022/09/04 00:12:04;;;;;;;983.57;919.60;;;14.30;99.90;;;;;;5074928;28;20457;-82
2022/09/04 00:14:42;;;;;;;979.73;908.03;;;14.20;99.90;;;;;;5067728;28;20514;-82
2022/09/04 00:17:16;;;;;;;981.33;909.30;;;14.50;99.90;;;;;;5072716;28;20471;-82
2022/09/04 00:19:48;;;;;;;986.03;916.50;;;14.40;99.90;;;;;;5073820;28;20444;-81
2022/09/04 00:22:26;;;;;;;991.23;925.97;;;14.50;99.90;;;;;;5078005;28;20435;-82
2022/09/04 00:25:02;;;;;;;951.30;895.30;;;14.40;99.90;;;;;;5074277;28;20454;-81
2022/09/04 00:27:42;;;;;;;876.57;828.47;;;14.30;99.90;;;;;;5091014;28;20470;-82
2022/09/04 00:30:14;;;;;;;892.40;843.20;;;14.20;99.90;;;;;;5087536;28;20450;-82
2022/09/04 00:32:45;;;;;;;949.73;894.07;;;14.10;99.90;;;;;;5068507;28;20455;-82
2022/09/04 00:35:15;;;;;;;964.33;903.80;;;14.20;99.90;;;;;;5067928;28;20476;-82
2022/09/04 00:37:46;;;;;;;966.53;903.53;;;14.20;99.90;;;;;;5088175;28;20997;-82
2022/09/04 00:40:20;;;;;;;974.27;902.27;;;14.20;99.90;;;;;;5086488;28;20450;-82
2022/09/04 00:43:05;;;;;;;980.97;908.77;;;14.30;99.90;;;;;;5088419;28;20461;-82
2022/09/04 00:46:01;;;;;;;981.27;911.00;;;14.30;99.90;;;;;;5082575;28;20451;-82
2022/09/04 00:49:06;;;;;;;980.10;908.50;;;14.40;99.90;;;;;;5067263;28;20471;-82
2022/09/04 00:51:44;;;;;;;976.30;905.07;;;14.30;99.90;;;;;;5060269;28;20454;-82
2022/09/04 00:54:28;;;;;;;972.87;907.87;;;14.30;99.90;;;;;;5087242;28;20446;-81
2022/09/04 00:57:49;;;;;;;971.30;910.03;;;14.30;99.90;;;;;;5072426;28;20562;-82
2022/09/04 01:00:18;;;;;;;982.13;915.27;;;14.10;99.90;;;;;;5067407;28;20969;-82
2022/09/04 01:03:15;;;;;;;986.00;910.50;;;14.10;99.90;;;;;;5047558;28;20984;-82
2022/09/04 01:06:08;;;;;;;975.00;897.07;;;14.20;99.90;;;;;;5053452;28;20447;-82
2022/09/04 01:08:47;;;;;;;972.80;895.97;;;14.20;99.90;;;;;;5087246;28;20476;-82
2022/09/04 01:11:17;;;;;;;971.77;898.30;;;14.20;99.90;;;;;;5076537;28;20458;-82
2022/09/04 01:13:59;;;;;;;957.17;886.00;;;14.20;99.90;;;;;;5068625;28;20458;-82
2022/09/04 01:16:32;;;;;;;958.43;888.10;;;14.20;99.90;;;;;;5081782;28;20474;-82
2022/09/04 01:19:09;;;;;;;962.43;883.37;;;14.10;99.90;;;;;;5088995;28;20457;-82
2022/09/04 01:22:04;;;;;;;956.37;876.37;;;14.30;99.90;;;;;;5077373;28;20447;-82
2022/09/04 01:24:51;;;;;;;953.93;872.57;;;14.30;99.90;;;;;;5070121;28;20444;-82
2022/09/04 01:27:25;;;;;;;942.57;862.17;;;14.40;99.90;;;;;;5087861;28;20478;-82
2022/09/04 01:30:03;;;;;;;928.77;852.30;;;14.50;99.90;;;;;;5090128;28;20442;-82
2022/09/04 01:32:41;;;;;;;927.30;856.90;;;14.30;99.90;;;;;;5070714;28;20451;-81
2022/09/04 01:35:17;;;;;;;931.53;866.10;;;14.30;99.90;;;;;;5072130;28;20467;-81
2022/09/04 01:37:57;;;;;;;930.07;864.37;;;14.00;99.90;;;;;;5090002;28;20466;-81
2022/09/04 01:40:36;;;;;;;933.70;867.80;;;14.10;99.90;;;;;;5085474;28;20538;-81
2022/09/04 01:43:10;;;;;;;923.60;858.10;;;14.10;99.90;;;;;;5070012;28;20455;-82
2022/09/04 01:46:09;;;;;;;921.27;853.10;;;14.00;99.90;;;;;;5075027;28;20447;-81
2022/09/04 01:48:46;;;;;;;907.17;838.60;;;14.10;99.90;;;;;;5020047;28;20853;-81
2022/09/04 01:51:28;;;;;;;893.83;823.50;;;14.10;99.90;;;;;;5088981;28;20492;-81
2022/09/04 01:54:10;;;;;;;895.53;822.83;;;14.10;99.90;;;;;;5089926;28;20456;-81
2022/09/04 01:56:44;;;;;;;902.30;828.83;;;14.30;99.90;;;;;;5076601;28;20467;-81
2022/09/04 01:59:22;;;;;;;891.97;817.40;;;14.40;99.90;;;;;;5069217;28;20825;-81
2022/09/04 02:01:57;;;;;;;891.73;815.93;;;14.40;99.90;;;;;;5082649;28;20450;-81
2022/09/04 02:04:30;;;;;;;890.00;813.40;;;14.40;99.90;;;;;;5088717;28;20450;-82
2022/09/04 02:07:08;;;;;;;911.87;834.10;;;14.50;99.90;;;;;;5086510;28;20470;-81
2022/09/04 02:09:43;;;;;;;903.67;829.17;;;14.40;99.90;;;;;;5088731;28;20450;-82
2022/09/04 02:12:34;;;;;;;904.23;831.47;;;14.30;99.90;;;;;;5072043;28;20451;-81
2022/09/04 02:15:09;;;;;;;913.23;840.90;;;14.20;99.90;;;;;;5068148;28;20843;-81
2022/09/04 02:17:43;;;;;;;913.60;841.50;;;14.10;99.90;;;;;;5085839;28;20569;-81
2022/09/04 02:20:21;;;;;;;914.13;838.77;;;13.90;99.90;;;;;;5088097;28;20453;-81
2022/09/04 02:23:04;;;;;;;911.63;836.50;;;13.90;99.90;;;;;;5068916;28;20459;-81
2022/09/04 02:25:36;;;;;;;911.07;833.50;;;13.80;99.90;;;;;;5086351;28;20450;-81
2022/09/04 02:28:14;;;;;;;919.87;840.53;;;13.80;99.90;;;;;;5067176;28;20472;-81
2022/09/04 02:30:50;;;;;;;917.43;838.53;;;13.70;99.90;;;;;;5074558;28;20447;-81
2022/09/04 02:33:24;;;;;;;921.83;843.23;;;13.90;99.90;;;;;;5087887;28;20458;-81
2022/09/04 02:36:01;;;;;;;925.60;848.17;;;13.90;99.90;;;;;;5079432;28;20477;-81
2022/09/04 02:38:38;;;;;;;915.13;836.90;;;13.90;99.90;;;;;;5077198;28;20470;-80
2022/09/04 02:41:12;;;;;;;925.40;845.73;;;13.90;99.90;;;;;;5078150;28;20463;-81
2022/09/04 02:43:56;;;;;;;912.20;834.07;;;14.00;99.90;;;;;;5066946;28;20515;-81
2022/09/04 02:46:31;;;;;;;915.10;836.53;;;14.00;99.90;;;;;;5076378;28;20446;-79
2022/09/04 02:49:08;;;;;;;913.23;835.30;;;13.90;99.90;;;;;;5086620;28;20450;-81
2022/09/04 02:51:53;;;;;;;920.47;844.17;;;13.90;99.90;;;;;;5075785;28;20451;-81
2022/09/04 02:54:32;;;;;;;918.57;846.47;;;13.80;99.90;;;;;;5066663;28;20456;-81
2022/09/04 02:57:08;;;;;;;914.70;843.90;;;13.60;99.90;;;;;;5081620;28;20474;-81
2022/09/04 02:59:48;;;;;;;915.67;841.67;;;13.50;99.90;;;;;;5086401;28;20545;-81
2022/09/04 03:02:23;;;;;;;900.20;833.70;;;13.40;99.90;;;;;;5070960;28;20453;-80
2022/09/04 03:04:55;;;;;;;895.87;833.33;;;13.30;99.90;;;;;;5046175;28;20456;-81
2022/09/04 03:07:29;;;;;;;899.33;830.90;;;13.10;99.90;;;;;;5079776;28;20471;-80
2022/09/04 03:10:06;;;;;;;894.00;824.67;;;13.10;99.90;;;;;;5087180;28;20431;-81
2022/09/04 03:12:38;;;;;;;887.63;824.23;;;13.20;99.90;;;;;;5070364;28;20455;-81
2022/09/04 03:15:14;;;;;;;867.27;810.27;;;13.10;99.90;;;;;;5066299;28;20454;-81
2022/09/04 03:17:51;;;;;;;840.67;788.60;;;12.90;99.90;;;;;;5084360;28;20468;-81
2022/09/04 03:20:21;;;;;;;838.10;785.80;;;12.70;99.90;;;;;;5076386;28;20431;-80
2022/09/04 03:22:55;;;;;;;850.70;795.80;;;12.80;99.90;;;;;;5066608;28;20447;-81
2022/09/04 03:26:04;;;;;;;868.40;810.30;;;12.80;99.90;;;;;;5069487;28;20470;-80
2022/09/04 03:28:41;;;;;;;880.93;818.03;;;12.90;99.90;;;;;;5046805;28;20471;-81
2022/09/04 03:31:23;;;;;;;880.20;812.83;;;12.90;99.90;;;;;;5053050;28;20447;-81
2022/09/04 03:34:03;;;;;;;880.47;810.13;;;13.10;99.90;;;;;;5068655;28;20463;-80
2022/09/04 03:36:42;;;;;;;880.07;808.20;;;13.00;99.90;;;;;;5072945;28;20474;-80
2022/09/04 03:39:17;;;;;;;876.03;804.17;;;13.00;99.90;;;;;;5082286;28;20447;-80
2022/09/04 03:41:54;;;;;;;883.13;808.93;;;13.20;99.90;;;;;;5065992;28;20958;-80
2022/09/04 03:44:31;;;;;;;875.13;802.40;;;13.20;99.90;;;;;;5065883;28;20458;-80
2022/09/04 03:47:08;;;;;;;885.17;808.83;;;13.20;99.90;;;;;;5065708;28;20463;-80
2022/09/04 03:49:48;;;;;;;877.67;801.53;;;13.10;99.90;;;;;;5073744;28;20528;-81
2022/09/04 03:52:22;;;;;;;884.87;807.90;;;13.20;99.90;;;;;;5086676;28;20465;-81
2022/09/04 03:55:09;;;;;;;879.70;802.20;;;13.40;99.90;;;;;;5084959;28;20458;-80
2022/09/04 03:57:51;;;;;;;896.70;817.13;;;13.40;99.90;;;;;;5084004;28;21037;-81
2022/09/04 04:00:21;;;;;;;895.87;816.40;;;13.30;99.90;;;;;;5084382;28;20450;-80
2022/09/04 04:03:02;;;;;;;904.60;823.37;;;13.40;99.90;;;;;;5066245;28;20455;-81
2022/09/04 04:05:39;;;;;;;908.67;827.17;;;13.50;99.90;;;;;;5065335;28;20455;-81
2022/09/04 04:08:29;;;;;;;937.90;854.70;;;13.50;99.90;;;;;;5045321;28;20541;-81
2022/09/04 04:11:04;;;;;;;937.33;854.43;;;13.60;99.90;;;;;;5046582;28;20522;-81
2022/09/04 04:13:47;;;;;;;930.80;846.97;;;13.50;99.90;;;;;;5047978;28;20462;-81
2022/09/04 04:16:26;;;;;;;931.50;848.23;;;13.60;99.90;;;;;;5086550;28;20466;-81
2022/09/04 04:19:12;;;;;;;945.50;864.90;;;13.50;99.90;;;;;;5081862;28;20956;-79
2022/09/04 04:21:54;;;;;;;937.17;859.90;;;13.30;99.90;;;;;;5065935;28;20451;-81
2022/09/04 04:24:50;;;;;;;931.27;856.10;;;13.00;99.90;;;;;;5071863;28;20489;-81
2022/09/04 04:27:34;;;;;;;917.77;841.30;;;12.90;99.90;;;;;;5086695;28;20462;-81
2022/09/04 04:30:13;;;;;;;918.47;840.03;;;12.90;99.90;;;;;;5075679;28;20446;-81
2022/09/04 04:33:11;;;;;;;904.93;827.73;;;13.00;99.90;;;;;;5067287;28;20447;-81
2022/09/04 04:35:44;;;;;;;893.20;815.50;;;13.00;99.90;;;;;;5035202;28;20462;-81
2022/09/04 04:38:38;;;;;;;899.87;821.77;;;13.10;99.90;;;;;;5072185;28;20466;-81
2022/09/04 04:41:15;;;;;;;911.87;834.60;;;13.10;99.90;;;;;;5086231;28;20446;-81
2022/09/04 04:43:55;;;;;;;901.93;824.10;;;13.10;99.90;;;;;;5075495;28;20447;-80
2022/09/04 04:46:33;;;;;;;909.57;828.77;;;13.10;99.90;;;;;;5064911;28;20451;-79
2022/09/04 04:49:36;;;;;;;904.70;824.03;;;13.20;99.90;;;;;;5080887;28;20446;-81
2022/09/04 04:52:17;;;;;;;883.60;803.70;;;13.40;99.90;;;;;;5086200;28;20450;-81
2022/09/04 04:55:04;;;;;;;886.70;809.40;;;13.30;99.90;;;;;;5072278;28;20465;-81
2022/09/04 04:57:37;;;;;;;878.07;803.43;;;13.10;99.90;;;;;;5068972;28;20534;-81
2022/09/04 05:00:14;;;;;;;879.40;805.57;;;13.00;99.90;;;;;;5087578;28;20446;-80
2022/09/04 05:02:49;;;;;;;876.13;803.03;;;13.00;99.90;;;;;;5084923;28;20450;-80
2022/09/04 05:05:27;;;;;;;865.93;794.63;;;13.10;99.90;;;;;;5064038;28;20958;-83
2022/09/04 05:08:03;;;;;;;868.13;798.73;;;13.10;99.90;;;;;;5088349;22;20501;-78
2022/09/04 05:10:39;;;;;;;862.20;793.90;;;13.00;99.90;;;;;;5080082;28;20450;-78
2022/09/04 05:13:15;;;;;;;864.30;793.03;;;13.00;99.90;;;;;;5079052;28;20449;-78
2022/09/04 05:15:48;;;;;;;866.60;793.50;;;13.10;99.90;;;;;;5080405;28;20442;-79
2022/09/04 05:18:25;;;;;;;866.70;791.00;;;13.30;99.90;;;;;;5090780;28;20469;-79
2022/09/04 05:20:57;;;;;;;877.37;801.03;;;13.40;99.90;;;;;;5102516;28;20540;-79
2022/09/04 05:23:32;;;;;;;872.37;795.17;;;13.40;99.90;;;;;;5089848;28;20442;-80
2022/09/04 05:26:10;;;;;;;876.63;798.97;;;13.50;99.90;;;;;;5089464;28;20445;-80
2022/09/04 05:28:47;;;;;;;890.47;811.17;;;13.60;99.90;;;;;;5087998;28;20470;-80
2022/09/04 05:31:24;;;;;;;898.77;818.50;;;13.70;99.90;;;;;;5081216;28;20446;-80
2022/09/04 05:33:58;;;;;;;906.60;825.97;;;13.90;99.90;;;;;;5095360;28;20445;-80
2022/09/04 05:36:36;;;;;;;898.40;816.70;;;14.10;99.90;;;;;;5093471;28;20446;-79
2022/09/04 05:39:09;;;;;;;904.50;822.93;;;14.10;99.90;;;;;;5097872;28;20548;-80
2022/09/04 05:41:46;;;;;;;890.73;810.40;;;14.30;99.90;;;;;;5096096;28;20454;-80
2022/09/04 05:44:26;;;;;;;894.30;813.40;;;14.40;99.90;;;;;;5079160;28;20472;-79
2022/09/04 05:47:06;;;;;;;902.00;820.20;;;14.50;99.90;;;;;;5079353;28;20458;-78
2022/09/04 05:49:46;;;;;;;894.63;812.43;;;14.70;99.90;;;;;;5081320;28;20461;-79
2022/09/04 05:52:32;;;;;;;890.07;808.67;;;14.80;99.90;;;;;;5081258;28;20465;-79
2022/09/04 05:55:30;;;;;;;883.00;802.33;;;15.10;99.90;;;;;;5094525;28;20445;-80
2022/09/04 05:58:12;;;;;;;886.27;805.33;;;15.20;99.90;;;;;;5103079;28;20506;-80
2022/09/04 06:00:49;;;;;;;880.27;800.47;;;15.30;99.90;;;;;;5100009;28;20449;-78
2022/09/04 06:03:39;;;;;;;890.00;810.40;;;15.50;99.90;;;;;;5094203;28;20453;-78
2022/09/04 06:06:20;;;;;;;874.20;796.20;;;15.50;99.90;;;;;;5095273;28;20434;-79
2022/09/04 06:09:07;;;;;;;883.97;806.40;;;15.60;99.90;;;;;;5094223;28;20997;-78
2022/09/04 06:11:51;;;;;;;877.53;802.30;;;15.70;99.90;;;;;;5080254;28;20445;-79
2022/09/04 06:14:43;;;;;;;868.83;796.63;;;15.90;99.90;;;;;;5094283;28;20442;-79
2022/09/04 06:17:24;;;;;;;873.10;803.10;;;16.00;99.90;;;;;;5079520;28;20455;-79
2022/09/04 06:20:26;;;;;;;862.17;793.83;;;16.20;99.90;;;;;;5084041;28;20453;-78
2022/09/04 06:23:25;;;;;;;864.07;797.90;;;16.30;99.90;;;;;;5086003;28;20461;-78
2022/09/04 06:26:20;;;;;;;849.70;789.33;;;16.30;99.90;;;;;;5076595;28;20443;-78
2022/09/04 06:29:02;;;;;;;823.70;768.10;;;16.50;99.90;;;;;;5076463;28;20468;-79
2022/09/04 06:32:06;;;;;;;821.70;770.50;;;16.60;99.90;;;;;;5085097;28;20832;-78
2022/09/04 06:34:50;;;;;;;809.63;760.27;;;16.70;99.90;;;;;;5051128;28;21032;-78
2022/09/04 06:37:24;;;;;;;768.77;726.37;;;16.80;99.90;;;;;;5074073;28;20463;-78
2022/09/04 06:40:06;;;;;;;742.50;704.80;;;16.80;99.90;;;;;;5074469;28;20869;-78
2022/09/04 06:42:48;;;;;;;721.43;685.10;;;16.90;99.90;;;;;;5084518;28;20450;-78
2022/09/04 06:45:23;;;;;;;706.40;672.03;;;17.10;99.90;;;;;;5074365;28;20480;-79
2022/09/04 06:48:03;;;;;;;676.23;645.83;;;17.00;99.90;;;;;;5080078;28;20475;-78
2022/09/04 06:50:40;;;;;;;616.17;590.73;;;17.10;99.90;;;;;;5080519;28;20460;-79
2022/09/04 06:53:25;;;;;;;586.27;562.97;;;17.30;99.90;;;;;;5074275;28;20460;-80
2022/09/04 06:56:05;;;;;;;571.17;548.00;;;17.30;99.90;;;;;;5089646;28;20453;-79
2022/09/04 06:58:53;;;;;;;515.03;495.70;;;17.50;99.90;;;;;;5054102;28;20864;-80
2022/09/04 07:01:39;;;;;;;502.73;484.47;;;17.70;99.90;;;;;;5089661;28;20457;-79
2022/09/04 07:04:20;;;;;;;428.77;414.13;;;17.70;99.90;;;;;;5081827;28;20456;-77
2022/09/04 07:07:30;;;;;;;380.20;367.77;;;17.80;99.90;;;;;;5090122;28;20526;-79
2022/09/04 07:10:08;;;;;;;346.80;335.57;;;18.00;99.90;;;;;;5075528;28;20454;-80
2022/09/04 07:12:58;;;;;;;299.10;289.60;;;18.00;99.90;;;;;;5075115;28;20529;-79
2022/09/04 07:16:03;;;;;;;267.87;259.37;;;18.10;99.90;;;;;;5074489;28;20566;-79
2022/09/04 07:19:06;;;;;;;226.13;218.27;;;18.20;99.90;;;;;;5033445;28;20472;-77
2022/09/04 07:21:43;;;;;;;165.53;159.33;;;18.30;99.90;;;;;;5081756;28;20525;-78
2022/09/04 07:24:55;;;;;;;167.57;161.50;;;18.60;99.90;;;;;;5081573;28;20446;-77
2022/09/04 07:27:47;;;;;;;144.07;138.77;;;18.50;99.90;;;;;;5075392;28;20480;-78
2022/09/04 07:30:24;;;;;;;57.63;54.77;;;18.80;99.90;;;;;;5092262;28;20475;-78
2022/09/04 07:33:27;;;;;;;42.03;39.47;;;18.90;99.90;;;;;;5091860;28;20448;-78
2022/09/04 07:36:32;;;;;;;25.73;23.90;;;19.10;99.90;;;;;;5087229;28;20474;-78
2022/09/04 07:39:30;;;;;;;20.87;19.07;;;19.20;99.90;;;;;;5091794;28;20469;-78
2022/09/04 07:42:25;;;;;;;13.13;11.97;;;19.20;99.90;;;;;;5086326;28;20483;-80
2022/09/04 07:45:00;;;;;;;10.90;8.50;;;19.40;99.90;;;;;;5062429;28;20444;-79
2022/09/04 07:47:34;;;;;;;8.67;7.63;;;19.60;99.90;;;;;;5090891;28;20479;-78
2022/09/04 07:50:08;;;;;;;9.90;6.13;;;19.70;99.90;;;;;;5077873;28;20482;-79
2022/09/04 07:52:53;;;;;;;11.57;6.40;;;19.80;99.40;;;;;;5088901;28;20483;-79
2022/09/04 07:55:40;;;;;;;10.53;5.43;;;19.90;98.40;;;;;;5073122;28;20464;-78
2022/09/04 07:58:44;;;;;;;7.93;5.80;;;20.20;97.20;;;;;;5092591;28;20468;-80
2022/09/04 08:01:38;;;;;;;;;;;;;;;;;;;;;
2022/09/04 08:08:05;;;;;;;14.10;6.10;;;21.60;92.30;;;;;;5075995;28;20491;-79
2022/09/04 08:10:39;;;;;;;7.03;4.57;;;22.00;87.50;;;;;;5077494;28;20446;-79
2022/09/04 08:14:05;;;;;;;11.43;5.53;;;22.40;85.60;;;;;;5094493;28;20459;-84
2022/09/04 08:16:59;;;;;;;8.23;4.70;;;22.50;80.10;;;;;;5065866;28;20509;-83
2022/09/04 08:19:42;;;;;;;10.20;4.73;;;23.00;75.50;;;;;;5083184;28;20442;-80
2022/09/04 08:22:13;;;;;;;14.87;5.30;;;23.30;74.90;;;;;;5094528;28;20441;-79
2022/09/04 08:32:35;;;;;;;8.50;5.03;;;23.80;68.20;;;;;;5013727;28;20437;-83
2022/09/04 08:35:57;;;;;;;6.90;3.97;;;23.80;65.30;;;;;;4944608;29;21046;-84
2022/09/04 08:41:47;;;;;;;9.83;4.20;;;24.90;59.20;;;;;;5180203;22;20580;-83
2022/09/04 08:45:12;;;;;;;6.90;2.90;;;25.10;58.00;;;;;;5081188;28;20582;-83
2022/09/04 08:48:19;;;;;;;8.80;2.80;;;25.40;53.70;;;;;;5047148;28;20478;-83
2022/09/04 08:51:15;;;;;;;5.40;2.70;;;25.80;48.40;;;;;;5088566;28;20419;-83
2022/09/04 08:54:12;;;;;;;6.77;2.80;;;25.80;45.90;;;;;;5090324;28;20482;-83
2022/09/04 08:56:47;;;;;;;6.73;3.57;;;25.50;45.80;;;;;;5093310;28;20446;-82
2022/09/04 08:59:48;;;;;;;9.23;2.73;;;25.80;46.10;;;;;;5091474;28;20450;-83
2022/09/04 09:02:55;;;;;;;8.30;3.50;;;26.40;41.10;;;;;;5085156;28;20468;-83
2022/09/04 09:06:05;;;;;;;6.27;3.33;;;26.60;40.10;;;;;;5081861;28;20420;-83
2022/09/04 09:09:20;;;;;;;5.60;3.17;;;26.70;38.70;;;;;;5072207;28;20487;-83
2022/09/04 09:12:34;;;;;;;6.03;2.80;;;27.10;38.00;;;;;;5067780;28;20449;-83
2022/09/04 09:15:38;;;;;;;5.73;2.80;;;27.50;32.30;;;;;;5079872;28;20453;-83
2022/09/04 09:18:30;;;;;;;5.73;2.70;;;27.10;31.20;;;;;;5081875;28;20470;-83
2022/09/04 09:21:09;;;;;;;9.50;2.83;;;27.80;30.00;;;;;;5081875;28;20450;-83
2022/09/04 09:23:52;;;;;;;11.60;3.13;;;28.20;28.90;;;;;;5082044;28;20472;-83
2022/09/04 09:26:27;;;;;;;9.60;2.77;;;27.90;28.60;;;;;;5081477;28;20467;-83
2022/09/04 09:29:26;;;;;;;12.17;3.07;;;28.00;27.20;;;;;;5082168;28;20516;-83
2022/09/04 09:32:38;;;;;;;11.00;3.43;;;28.60;25.30;;;;;;5082381;28;20455;-83
2022/09/04 09:36:00;;;;;;;7.23;2.87;;;28.70;24.70;;;;;;5035911;28;20431;-83
2022/09/04 09:38:46;;;;;;;9.73;2.83;;;28.70;22.30;;;;;;5068731;28;20465;-83
2022/09/04 09:41:41;;;;;;;7.80;3.33;;;29.40;20.30;;;;;;5081685;28;20440;-83
2022/09/04 09:44:41;;;;;;;6.90;2.60;;;29.60;18.50;;;;;;5080887;28;20925;-82
2022/09/04 09:47:39;;;;;;;6.63;2.70;;;30.00;18.50;;;;;;5081820;28;20958;-83
2022/09/04 09:50:48;;;;;;;7.33;3.30;;;29.40;18.50;;;;;;5081947;28;20425;-83
2022/09/04 09:53:47;;;;;;;6.30;3.10;;;28.40;20.70;;;;;;5081861;28;20450;-83
2022/09/04 09:56:45;;;;;;;5.60;2.93;;;29.00;20.50;;;;;;5039718;28;20432;-83
2022/09/04 09:59:36;;;;;;;7.07;2.90;;;29.30;17.80;;;;;;5046431;28;20991;-83
2022/09/04 10:02:36;;;;;;;9.30;2.33;;;29.90;17.60;;;;;;5079321;28;20449;-83
2022/09/04 10:05:22;;;;;;;5.60;2.63;;;30.50;12.30;;;;;;5079025;28;20446;-84
2022/09/04 10:08:09;;;;;;;8.17;2.83;;;30.50;11.10;;;;;;5078509;28;20467;-83
2022/09/04 10:11:02;;;;;;;5.60;2.10;;;30.60;11.20;;;;;;5078485;28;20446;-83
2022/09/04 10:13:55;;;;;;;6.07;2.37;;;30.50;11.10;;;;;;5078530;28;20869;-83
2022/09/04 10:16:51;;;;;;;5.20;2.43;;;30.70;11.30;;;;;;5078430;28;20448;-83
2022/09/04 10:19:57;;;;;;;5.07;2.70;;;30.70;8.70;;;;;;5080500;28;20436;-83
2022/09/04 10:23:03;;;;;;;9.60;2.30;;;30.80;8.50;;;;;;5080492;28;20544;-83
2022/09/04 10:26:01;;;;;;;6.40;1.97;;;30.50;7.30;;;;;;5079057;28;20454;-83
2022/09/04 10:29:19;;;;;;;6.10;1.90;;;31.00;8.60;;;;;;5080010;28;20456;-84
2022/09/04 10:32:28;;;;;;;6.93;2.53;;;31.10;7.00;;;;;;5032414;28;20446;-83
2022/09/04 10:35:27;;;;;;;6.90;2.10;;;29.80;8.00;;;;;;5080171;28;20495;-83
2022/09/04 10:38:29;;;;;;;9.90;2.30;;;29.50;11.30;;;;;;5060286;28;20458;-83
2022/09/04 10:41:34;;;;;;;5.73;2.30;;;29.20;10.50;;;;;;5069826;28;20459;-83
2022/09/04 10:44:22;;;;;;;4.80;1.83;;;29.00;11.00;;;;;;5073255;28;20450;-83
2022/09/04 10:47:02;;;;;;;9.77;1.80;;;28.60;10.90;;;;;;5079940;28;20450;-83
2022/09/04 10:49:45;;;;;;;5.27;1.97;;;28.10;14.30;;;;;;5080178;28;20501;-83
2022/09/04 10:52:39;;;;;;;7.33;2.20;;;28.20;14.90;;;;;;5080073;28;20498;-83
2022/09/04 10:55:31;;;;;;;4.47;1.80;;;28.90;13.70;;;;;;5080075;28;20450;-83
2022/09/04 10:58:27;;;;;;;5.30;1.87;;;29.80;10.90;;;;;;5079581;28;20607;-83
2022/09/04 11:01:26;;;;;;;6.10;2.20;;;30.40;8.00;;;;;;5079959;28;20428;-83
2022/09/04 11:04:21;;;;;;;5.10;2.10;;;31.30;7.20;;;;;;5079142;28;20425;-83
2022/09/04 11:07:09;;;;;;;5.13;2.07;;;31.20;3.60;;;;;;5079255;28;20421;-83
2022/09/04 11:10:03;;;;;;;6.00;2.07;;;30.80;3.00;;;;;;5084623;22;20478;-82
2022/09/04 11:13:01;;;;;;;5.77;2.10;;;29.40;6.50;;;;;;5065832;28;20486;-82
2022/09/04 11:16:08;;;;;;;5.80;2.47;;;29.40;7.90;;;;;;5061641;28;21167;-80
2022/09/04 11:19:09;;;;;;;7.53;2.07;;;30.10;6.30;;;;;;5047636;28;20999;-80
2022/09/04 11:22:07;;;;;;;7.20;2.10;;;29.60;7.80;;;;;;5057061;28;20454;-80
2022/09/04 11:25:07;;;;;;;5.00;2.30;;;29.60;9.00;;;;;;5003214;28;20459;-80
2022/09/04 11:27:57;;;;;;;6.23;2.07;;;29.50;8.00;;;;;;5043204;28;20471;-80
2022/09/04 11:30:35;;;;;;;5.67;2.50;;;29.90;5.30;;;;;;5053491;28;20449;-81
2022/09/04 11:33:37;;;;;;;11.83;2.33;;;29.90;6.90;;;;;;5056545;28;20674;-81
2022/09/04 11:36:42;;;;;;;5.43;2.30;;;29.80;5.40;;;;;;5061456;28;20894;-81
2022/09/04 11:39:43;;;;;;;5.60;2.17;;;29.00;6.90;;;;;;5028448;28;20987;-81
2022/09/04 11:42:31;;;;;;;5.13;1.77;;;28.90;5.80;;;;;;5055263;28;20469;-80
2022/09/04 11:45:31;;;;;;;4.40;1.63;;;28.90;6.20;;;;;;5035689;28;20558;-80
2022/09/04 11:48:35;;;;;;;6.20;1.90;;;28.50;8.90;;;;;;5039853;28;20496;-80
2022/09/04 11:51:38;;;;;;;5.87;2.10;;;28.20;9.70;;;;;;5055910;28;20459;-80
2022/09/04 11:54:24;;;;;;;5.40;1.90;;;28.10;10.90;;;;;;5055485;28;20426;-81
2022/09/04 11:57:04;;;;;;;6.20;2.10;;;27.70;12.20;;;;;;5055184;28;20459;-80
2022/09/04 12:00:06;;;;;;;6.90;1.87;;;28.00;9.80;;;;;;5054805;28;20479;-79
2022/09/04 12:03:12;;;;;;;10.47;2.60;;;28.10;9.80;;;;;;5054929;28;20458;-79
2022/09/04 12:06:02;;;;;;;5.40;1.90;;;28.30;9.10;;;;;;5054546;28;20458;-79
2022/09/04 12:09:15;;;;;;;5.53;2.10;;;28.80;8.50;;;;;;5054515;28;20486;-79
2022/09/04 12:12:21;;;;;;;6.13;3.70;;;28.90;8.00;;;;;;4993773;28;20488;-80
2022/09/04 12:15:19;;;;;;;5.73;2.13;;;29.20;8.20;;;;;;5054332;28;20489;-79
2022/09/04 12:18:09;;;;;;;4.73;1.90;;;29.10;6.20;;;;;;5054072;28;20447;-79
2022/09/04 12:21:01;;;;;;;5.27;1.83;;;29.20;6.80;;;;;;5043169;28;20447;-80
2022/09/04 12:23:44;;;;;;;4.80;1.80;;;29.10;4.80;;;;;;5054201;28;20454;-79
2022/09/04 12:26:39;;;;;;;5.30;2.10;;;29.50;3.00;;;;;;5053926;28;20462;-80
2022/09/04 12:29:43;;;;;;;5.20;2.03;;;29.30;2.60;;;;;;5048005;28;20475;-79
2022/09/04 12:33:13;;;;;;;4.77;2.20;;;29.00;1.30;;;;;;5054294;28;20447;-79
2022/09/04 12:36:22;;;;;;;4.20;1.43;;;29.30;1.90;;;;;;5046461;28;20443;-79
2022/09/04 12:39:12;;;;;;;5.27;1.80;;;29.90;1.00;;;;;;5061458;28;20485;-80
2022/09/04 12:41:49;;;;;;;7.40;1.80;;;30.60;1.00;;;;;;5062127;28;20447;-79
2022/09/04 12:44:29;;;;;;;4.70;1.77;;;31.10;1.00;;;;;;5054644;28;20425;-79
2022/09/04 12:47:12;;;;;;;4.30;1.70;;;31.30;1.00;;;;;;5054743;28;20451;-79
2022/09/04 12:49:57;;;;;;;5.67;1.83;;;31.30;1.00;;;;;;5055493;28;20446;-80
2022/09/04 12:52:40;;;;;;;9.40;1.63;;;30.80;1.00;;;;;;5054689;28;20455;-79
2022/09/04 12:55:13;;;;;;;6.03;2.10;;;30.40;1.00;;;;;;5054934;28;20455;-81
2022/09/04 12:57:48;;;;;;;4.50;1.70;;;30.20;1.00;;;;;;5054398;28;20429;-79
2022/09/04 13:00:16;;;;;;;5.00;1.80;;;30.30;1.00;;;;;;5054657;28;20486;-79
2022/09/04 13:03:00;;;;;;;5.73;1.97;;;30.40;1.00;;;;;;5054311;28;20451;-78
2022/09/04 13:05:38;;;;;;;6.03;1.53;;;30.60;1.00;;;;;;5054114;28;20430;-79
2022/09/04 13:08:22;;;;;;;4.97;2.00;;;30.30;1.00;;;;;;5054992;28;20489;-79
2022/09/04 13:11:00;;;;;;;5.70;2.50;;;30.00;1.00;;;;;;5065495;28;20446;-78
2022/09/04 13:13:38;;;;;;;5.00;2.00;;;30.20;1.00;;;;;;5061234;28;20447;-79
2022/09/04 13:16:11;;;;;;;5.67;2.00;;;30.90;1.00;;;;;;5061801;28;20453;-79
2022/09/04 13:18:48;;;;;;;5.20;1.80;;;31.80;1.00;;;;;;5067583;28;20445;-80
2022/09/04 13:21:25;;;;;;;4.30;1.57;;;33.00;1.00;;;;;;5044332;28;20455;-80
2022/09/04 13:24:25;;;;;;;6.87;1.97;;;32.30;1.00;;;;;;5065091;28;20477;-79
2022/09/04 13:27:05;;;;;;;5.40;1.90;;;33.30;1.00;;;;;;5048704;28;20450;-80
2022/09/04 13:29:41;;;;;;;6.33;1.90;;;33.70;1.00;;;;;;5067146;28;20461;-80
2022/09/04 13:32:23;;;;;;;6.20;1.83;;;33.10;1.00;;;;;;5078268;28;20453;-80
2022/09/04 13:35:10;;;;;;;7.33;2.60;;;32.80;1.00;;;;;;5074651;28;20422;-80
2022/09/04 13:37:48;;;;;;;5.40;2.07;;;31.50;1.00;;;;;;5056980;28;20422;-80
2022/09/04 13:40:25;;;;;;;4.57;1.90;;;31.40;1.00;;;;;;5061346;28;20506;-81
2022/09/04 13:43:17;;;;;;;5.07;2.00;;;30.80;1.00;;;;;;5061629;28;20521;-81
2022/09/04 13:45:49;;;;;;;5.17;2.00;;;31.20;1.00;;;;;;5061898;28;20451;-80
2022/09/04 13:48:22;;;;;;;5.13;2.03;;;31.40;1.00;;;;;;5061632;28;20467;-80
2022/09/04 13:50:54;;;;;;;6.00;1.93;;;31.20;1.00;;;;;;5062315;28;20827;-81
2022/09/04 13:53:25;;;;;;;6.97;1.80;;;30.90;1.00;;;;;;5060713;28;20422;-81
2022/09/04 13:55:58;;;;;;;6.50;2.40;;;30.80;1.00;;;;;;5060158;28;20478;-81
2022/09/04 13:58:30;;;;;;;5.90;2.40;;;30.80;1.00;;;;;;5059580;28;20467;-80
2022/09/04 14:00:59;;;;;;;8.00;2.00;;;30.10;1.00;;;;;;5061076;28;20455;-81
2022/09/04 14:03:34;;;;;;;8.30;2.27;;;29.70;1.00;;;;;;5061332;28;20447;-81
2022/09/04 14:06:04;;;;;;;9.63;2.03;;;29.40;1.00;;;;;;5060025;28;20435;-80
2022/09/04 14:08:33;;;;;;;7.40;1.90;;;29.70;1.00;;;;;;5059055;28;20486;-80
2022/09/04 14:11:36;;;;;;;7.13;2.17;;;29.90;1.00;;;;;;5064635;28;20490;-85
2022/09/04 14:14:33;;;;;;;5.77;2.47;;;30.10;1.00;;;;;;5056932;28;20824;-81
2022/09/04 14:17:00;;;;;;;12.17;2.43;;;29.90;1.00;;;;;;5061463;28;21152;-81